Azusa Past Weather

Last 30 Days

 
High: 63ºf @12:57 AM    Low: 63ºf @12:57 AM     Approx. Precipitation / Rain Total: in.
Time (PDT)Temp. (ºf)Humidity (%)Dew Point (ºf)Barometer (inHG)Wind Speed (mph)Wind DirectionWind Gust (mph)1hr. Precip / Rain Total (in.)Snow Depth
1:57 AM639160.33-2.61w5.21--
12:57 AM638859.39-2.61w4.34--
High: 92ºf @2:57 PM    Low: 61ºf @5:57 AM     Approx. Precipitation / Rain Total: in.
Time (PDT)Temp. (ºf)Humidity (%)Dew Point (ºf)Barometer (inHG)Wind Speed (mph)Wind DirectionWind Gust (mph)1hr. Precip / Rain Total (in.)Snow Depth
11:57 PM658359.71-2.61wsw4.34--
10:57 PM668059.65-3.48sw5.21--
9:57 PM687359.01-3.48sw6.08--
8:57 PM726459.14-2.61sw7.82--
7:57 PM765458.13-3.48sw11.3--
6:57 PM824558.53-6.95sw12.17--
5:57 PM863756.66-6.95sw13.03--
4:57 PM893356.12-6.95sw13.03--
3:57 PM912954.28-6.95sw13.9--
2:57 PM922854.17-6.08sw12.17--
1:57 PM903356.99-4.34wsw11.3--
12:57 PM883758.42-4.34wsw9.56--
11:57 AM854460.61-3.48sw9.56--
10:57 AM805160.22-3.48sw8.69--
9:57 AM775760.58-3.48wsw7.82--
8:57 AM746360.59-2.61wsw6.08--
7:57 AM696958.4-1.74wsw3.48--
5:57 AM618556.45-2.61w4.34--
3:57 AM647555.91-2.61w3.48--
2:57 AM656854.17---1.74--
1:57 AM646351.15-1.74n3.48--
12:57 AM666051.71-3.48nw3.48--
High: 93ºf @2:57 PM    Low: 62ºf @5:57 AM     Approx. Precipitation / Rain Total: in.
Time (PDT)Temp. (ºf)Humidity (%)Dew Point (ºf)Barometer (inHG)Wind Speed (mph)Wind DirectionWind Gust (mph)1hr. Precip / Rain Total (in.)Snow Depth
11:57 PM685450.72-2.61wsw3.48--
9:57 PM705452.58-2.61sw6.08--
8:57 PM755256.16-3.48sw6.95--
7:57 PM794857.61-4.34wsw8.69--
6:57 PM844459.71-6.08wsw11.3--
5:57 PM883859.17-6.95wsw13.03--
4:57 PM903659.41-8.69sw13.03--
3:57 PM923560.38-7.82wsw17.38--
2:57 PM933056.93-6.95wsw13.9--
1:57 PM932955.99-6.95wsw13.9--
12:57 PM913156.12-6.08wsw12.17--
11:57 AM873556-5.21wsw10.43--
10:57 AM853957.23-3.48sw6.95--
9:57 AM805260.77-3.48ssw6.08--
8:57 AM756562.42-2.61ssw4.34--
7:57 AM698263.27-2.61sw6.08--
5:57 AM629560.55-2.61w5.21--
4:57 AM639360.94-3.48w4.34--
3:57 AM648960.69-2.61w4.34--
2:57 AM658259.37-2.61wnw4.34--
1:57 AM668260.34-3.48w5.21--
12:57 AM677056.88-2.61w5.21--
High: 97ºf @2:57 PM    Low: 64ºf @5:57 AM     Approx. Precipitation / Rain Total: in.
Time (PDT)Temp. (ºf)Humidity (%)Dew Point (ºf)Barometer (inHG)Wind Speed (mph)Wind DirectionWind Gust (mph)1hr. Precip / Rain Total (in.)Snow Depth
11:57 PM695853.6-3.48w4.34--
10:57 PM715654.5-2.61wsw3.48--
9:57 PM745556.79-2.61sw4.34--
8:57 PM775056.92-3.48wsw5.21--
7:57 PM824357.27-4.34wsw10.43--
6:57 PM893356.12-6.95wsw12.17--
5:57 PM961845.61-6.08sw12.17--
4:57 PM961642.52-5.21w12.17--
3:57 PM971744.9-6.08sw13.03--
2:57 PM971947.85-6.95wsw13.03--
1:57 PM972150.53-6.08sw13.03--
12:57 PM962352.17-4.34wsw10.43--
11:57 AM942552.77-4.34wsw10.43--
10:57 AM903054.36-3.48wnw8.69--
9:57 AM873354.38-1.74nw7.82--
8:57 AM833854.74-0.87e4.34--
7:57 AM755457.21-0.87s4.34--
6:57 AM686053.59---3.48--
5:57 AM646752.82---3.48--
2:57 AM675148.27-1.74nnw4.34--
1:57 AM656452.52-0.87wsw2.61--
12:57 AM685752.19-0.87wnw2.61--
High: 98ºf @2:57 PM    Low: 61ºf @5:57 AM     Approx. Precipitation / Rain Total: in.
Time (PDT)Temp. (ºf)Humidity (%)Dew Point (ºf)Barometer (inHG)Wind Speed (mph)Wind DirectionWind Gust (mph)1hr. Precip / Rain Total (in.)Snow Depth
11:57 PM695753.12-0.87wsw3.48--
10:57 PM725052.33-3.48wsw3.48--
9:57 PM754552.2-3.48sw4.34--
8:57 PM773950.13-2.61sw6.95--
7:57 PM832846.51-4.34sw7.82--
6:57 PM892447.48-5.21wsw12.17--
5:57 PM922551.09-6.95sw13.03--
4:57 PM932754.03-8.69sw14.77--
3:57 PM972454.16-6.95sw14.77--
2:57 PM981745.7-6.95sw13.9--
1:57 PM971846.41-5.21w11.3--
12:57 PM962048.4-5.21sw10.43--
11:57 AM942046.77-2.61ssw10.43--
10:57 AM892245.18-2.61s8.69--
9:57 AM863151.81-2.61ene5.21--
8:57 AM794455.2-0.87sse3.48--
7:57 AM716156.86-1.74ssw3.48--
6:57 AM666654.31-0.87ese2.61--
5:57 AM617854.09---4.34--
4:57 AM637053.06-0.87wnw2.61--
3:57 AM646652.41-0.87w3.48--
2:57 AM646551.99-0.87ne2.61--
1:57 AM656251.66-0.87ne2.61--
12:57 AM656050.77-1.74nw2.61--
High: 94ºf @2:57 PM    Low: 61ºf @5:57 AM     Approx. Precipitation / Rain Total: in.
Time (PDT)Temp. (ºf)Humidity (%)Dew Point (ºf)Barometer (inHG)Wind Speed (mph)Wind DirectionWind Gust (mph)1hr. Precip / Rain Total (in.)Snow Depth
11:57 PM675751.26---2.61--
10:57 PM695250.63-2.61w3.48--
9:57 PM714649.16-2.61ssw5.21--
8:57 PM744450.69-2.61ssw6.08--
7:57 PM793448.21-3.48sw9.56--
6:57 PM842847.36-6.08wsw11.3--
5:57 PM892649.62-6.95ssw13.03--
4:57 PM922551.09-6.95sw14.77--
3:57 PM932248.49-7.82wsw16.51--
2:57 PM942552.77-9.56wsw17.38--
1:57 PM942855.88-7.82wsw14.77--
12:57 PM922753.18-6.08wsw13.9--
11:57 AM882749.79-5.21wsw8.69--
10:57 AM873253.54-3.48ssw7.82--
9:57 AM843855.63-1.74sse6.08--
8:57 AM785057.83-1.74s4.34--
7:57 AM735857.33-1.74s3.48--
5:57 AM616649.56---4.34--
4:57 AM626449.68-1.74nne5.21--
2:57 AM627754.7---1.74--
1:57 AM637856.03---3.48--
12:57 AM657757.61-2.61wsw3.48--
High: 94ºf @2:57 PM    Low: 57ºf @5:57 AM     Approx. Precipitation / Rain Total: in.
Time (PDT)Temp. (ºf)Humidity (%)Dew Point (ºf)Barometer (inHG)Wind Speed (mph)Wind DirectionWind Gust (mph)1hr. Precip / Rain Total (in.)Snow Depth
11:57 PM667156.32-2.61wsw3.48--
10:57 PM676253.54-2.61sw4.34--
9:57 PM695753.12-3.48sw4.34--
8:57 PM735555.86-2.61sw6.08--
7:57 PM804154.16-3.48sw9.56--
6:57 PM853554.25-6.08wsw10.43--
5:57 PM892750.64-7.82wsw13.03--
4:57 PM912651.31-6.95sw13.9--
3:57 PM932754.03-6.95wsw13.03--
2:57 PM942552.77-6.95wsw13.9--
1:57 PM941945.41-5.21w12.17--
12:57 PM922146.43-5.21sw10.43--
11:57 AM902448.32-3.48ssw7.82--
10:57 AM863050.92-2.61wsw7.82--
9:57 AM813953.68-2.61sw11.3--
8:57 AM783951.01-1.74sse6.08--
7:57 AM706557.68-0.87s3.48--
6:57 AM619659.85---1.74--
5:57 AM579856.44---0.87--
4:57 AM589656.86---1.74--
2:57 AM608655.8---1.74--
1:57 AM608655.8---2.61--
12:57 AM628858.4-1.74sw3.48--
High: 88ºf @3:57 PM    Low: 62ºf @11:57 PM     Approx. Precipitation / Rain Total: in.
Time (PDT)Temp. (ºf)Humidity (%)Dew Point (ºf)Barometer (inHG)Wind Speed (mph)Wind DirectionWind Gust (mph)1hr. Precip / Rain Total (in.)Snow Depth
11:57 PM628758.08-2.61sw3.48--
9:57 PM667457.47-2.61sw6.08--
7:57 PM745757.78-5.21sw10.43--
6:57 PM794656.43-6.08wsw12.17--
5:57 PM843553.37-6.95sw12.17--
4:57 PM873152.67-6.95sw14.77--
3:57 PM882547.73-5.21wsw11.3--
2:57 PM863454.33-6.08sw11.3--
1:57 PM844057.05-3.48wsw10.43--
12:57 PM814758.84-5.21w11.3--
11:57 AM785158.38-3.48ssw9.56--
10:57 AM755557.72-5.21s9.56--
9:57 AM745757.78-3.48sw7.82--
8:57 AM716458.2-3.48wsw6.08--
7:57 AM696355.87-1.74ne5.21--
6:57 AM637454.58-2.61ene6.95--
5:57 AM637655.31-2.61ne6.95--
4:57 AM647957.35-2.61nnw4.34--
2:57 AM648057.7-0.87ssw3.48--
1:57 AM648258.39-1.74sw4.34--
12:57 AM648258.39-2.61sw5.21--
High: 83ºf @4:57 PM    Low: 60ºf @1:57 AM     Approx. Precipitation / Rain Total: in.
Time (PDT)Temp. (ºf)Humidity (%)Dew Point (ºf)Barometer (inHG)Wind Speed (mph)Wind DirectionWind Gust (mph)1hr. Precip / Rain Total (in.)Snow Depth
11:57 PM638458.08-2.61wsw4.34--
10:57 PM628557.43-2.61sw5.21--
9:57 PM647957.35-3.48wsw6.95--
7:57 PM716458.2-5.21sw10.43--
6:57 PM775358.54-5.21sw11.3--
5:57 PM804757.93-6.08sw12.17--
4:57 PM834358.17-5.21w12.17--
3:57 PM824659.15-6.08wsw11.3--
2:57 PM805160.22-5.21w12.17--
1:57 PM785359.46-5.21sw11.3--
12:57 PM775660.08-2.61s8.69--
11:57 AM726459.14-2.61s7.82--
10:57 AM697159.19-2.61s6.08--
9:57 AM687359.01-2.61se6.08--
8:57 AM667557.84-1.74sse4.34--
7:57 AM657757.61---3.48--
5:57 AM627955.41-4.34nne6.95--
4:57 AM638056.73-3.48nne6.08--
2:57 AM638458.08-2.61wnw3.48--
1:57 AM608956.75-1.74wnw3.48--
12:57 AM618957.73-2.61wsw2.61--
High: 84ºf @2:57 PM    Low: 60ºf @1:57 AM     Approx. Precipitation / Rain Total: in.
Time (PDT)Temp. (ºf)Humidity (%)Dew Point (ºf)Barometer (inHG)Wind Speed (mph)Wind DirectionWind Gust (mph)1hr. Precip / Rain Total (in.)Snow Depth
11:57 PM618857.42-1.74sw3.48--
10:57 PM628657.76-2.61sw2.61--
9:57 PM638157.07-1.74wsw5.21--
8:57 PM657657.24-3.48wsw6.95--
7:57 PM686857.03-5.21wsw11.3--
5:57 PM775258.01-7.82sw13.9--
4:57 PM794857.61-7.82sw14.77--
3:57 PM834358.17-6.95wsw14.77--
2:57 PM844057.05-6.95wsw13.9--
1:57 PM844057.05-5.21sw11.3--
12:57 PM814457.01-5.21wsw12.17--
11:57 AM775157.47-4.34w9.56--
10:57 AM745556.79-3.48s7.82--
9:57 AM696556.73-3.48sw7.82--
8:57 AM667156.32-1.74nw9.56--
7:57 AM647455.54-2.61wsw7.82--
6:57 AM637554.95-2.61wsw4.34--
5:57 AM637856.03-1.74wsw2.61--
4:57 AM627855.06-0.87sw2.61--
1:57 AM608555.47-1.74wsw2.61--
12:57 AM618255.46-1.74wsw3.48--
High: 79ºf @2:57 PM    Low: 61ºf @7:57 AM     Approx. Precipitation / Rain Total: in.
Time (PDT)Temp. (ºf)Humidity (%)Dew Point (ºf)Barometer (inHG)Wind Speed (mph)Wind DirectionWind Gust (mph)1hr. Precip / Rain Total (in.)Snow Depth
11:57 PM637956.38---6.08--
10:57 PM657356.13-3.48sw7.82--
9:57 PM667055.93-4.34sw7.82--
7:57 PM696154.98-5.21sw10.43--
6:57 PM705854.53-6.08sw13.9--
5:57 PM735455.36-6.08sw11.3--
4:57 PM764955.44-5.21sw13.9--
3:57 PM774755.2-7.82sw15.64--
2:57 PM794253.92-7.82w12.17--
1:57 PM774453.4-5.21wsw11.3--
12:57 PM764653.71-5.21w12.17--
11:57 AM745054.16-2.61ssw11.3--
10:57 AM735555.86-2.61e6.08--
9:57 AM687258.63-3.48n6.08--
8:57 AM629059.03-3.48ne6.08--
7:57 AM619459.26-1.74ssw7.82--
6:57 AM638157.07-3.48sse6.08--
5:57 AM637956.38-2.61s4.34--
4:57 AM638056.73-0.87s2.61--
3:57 AM638056.73-0.87ssw5.21--
2:57 AM638257.41-3.48s6.08--
1:57 AM648358.73-1.74sse6.95--
12:57 AM648057.7-2.61sse6.95--
High: 76ºf @4:57 PM    Low: 64ºf @7:57 AM     Approx. Precipitation / Rain Total: in.
Time (PDT)Temp. (ºf)Humidity (%)Dew Point (ºf)Barometer (inHG)Wind Speed (mph)Wind DirectionWind Gust (mph)1hr. Precip / Rain Total (in.)Snow Depth
11:57 PM647957.35-4.34sse7.82--
10:57 PM657757.61-4.34sw8.69--
9:57 PM667959.29-4.34ssw7.82--
8:57 PM667557.84-3.48sw10.43--
7:57 PM687258.63-4.34sw10.43--
6:57 PM706858.94-5.21sw10.43--
5:57 PM726459.14-6.08sw13.9--
4:57 PM765860.14-8.69wsw15.64--
3:57 PM765659.15-4.34wsw10.43--
2:57 PM746059.22-3.48sw16.51--
1:57 PM736158.74-2.61wnw8.69--
12:57 PM726358.7-4.34wnw6.95--
11:57 AM716659.06-3.48s6.08--
10:57 AM697058.8-2.61se6.95--
9:57 AM677759.54-3.48sse6.08--
8:57 AM658359.71-2.61sse6.08--
7:57 AM648358.73-4.34sse8.69--
6:57 AM657958.32-4.34sse6.95--
5:57 AM657958.32-3.48s5.21--
4:57 AM657657.24-3.48s5.21--
2:57 AM667959.29-1.74sse3.48--
1:57 AM668059.65-0.87w4.34--
12:57 AM668160-1.74sw5.21--
High: 88ºf @3:57 PM    Low: 59ºf @5:57 AM     Approx. Precipitation / Rain Total: in.
Time (PDT)Temp. (ºf)Humidity (%)Dew Point (ºf)Barometer (inHG)Wind Speed (mph)Wind DirectionWind Gust (mph)1hr. Precip / Rain Total (in.)Snow Depth
11:57 PM658259.37-3.48wsw6.08--
10:57 PM658259.37-3.48wsw6.08--
9:57 PM668059.65-3.48wsw6.08--
8:57 PM687359.01-2.61w7.82--
6:57 PM775459.06-5.21wsw12.17--
5:57 PM824357.27-6.95sw13.03--
4:57 PM863353.51-6.08sw12.17--
3:57 PM883355.25-6.08ssw13.9--
2:57 PM873656.78-6.95sw13.03--
1:57 PM863958.12-5.21sw11.3--
12:57 PM844459.71-4.34sw11.3--
11:57 AM824960.93-4.34wsw9.56--
10:57 AM785661.01-2.61sw7.82--
9:57 AM746461.03-2.61ssw7.82--
8:57 AM717161.11-1.74wsw6.08--
7:57 AM668260.34-0.87wnw5.21--
6:57 AM639160.33-0.87sw2.61--
5:57 AM599758.15-2.61w3.48--
4:57 AM609558.56-2.61wsw3.48--
3:57 AM619358.96-2.61sw3.48--
2:57 AM619158.35-2.61sw3.48--
1:57 AM618957.73-2.61wsw3.48--
12:57 AM638658.74-1.74wsw4.34--
High: 89ºf @3:57 PM    Low: 60ºf @2:57 AM     Approx. Precipitation / Rain Total: in.
Time (PDT)Temp. (ºf)Humidity (%)Dew Point (ºf)Barometer (inHG)Wind Speed (mph)Wind DirectionWind Gust (mph)1hr. Precip / Rain Total (in.)Snow Depth
10:57 PM667959.29-2.61wsw5.21--
9:57 PM687459.39-2.61sw5.21--
8:57 PM716759.48-3.48sw6.95--
7:57 PM745757.78-5.21wsw8.69--
6:57 PM794656.43-5.21wsw12.17--
5:57 PM823954.57-6.95wsw12.17--
4:57 PM863655.9-6.95wsw13.03--
3:57 PM893557.75-6.95wsw13.9--
2:57 PM893557.75-6.08sw12.17--
1:57 PM883657.66-5.21sw14.77--
12:57 PM864159.52-5.21wsw10.43--
11:57 AM824860.34-4.34w9.56--
10:57 AM785661.01-4.34sw8.69--
9:57 AM746159.68-2.61w6.95--
8:57 AM726760.43-3.48sw6.08--
7:57 AM687559.77-0.87nw2.61--
4:57 AM619258.66-1.74ssw2.61--
3:57 AM609257.67-1.74sw3.48--
2:57 AM609357.97-2.61ssw3.48--
1:57 AM619158.35-2.61ssw3.48--
12:57 AM618857.42-2.61wsw3.48--
High: 85ºf @3:57 PM    Low: 62ºf @11:57 PM     Approx. Precipitation / Rain Total: in.
Time (PDT)Temp. (ºf)Humidity (%)Dew Point (ºf)Barometer (inHG)Wind Speed (mph)Wind DirectionWind Gust (mph)1hr. Precip / Rain Total (in.)Snow Depth
11:57 PM628758.08-2.61wsw3.48--
10:57 PM638458.08-2.61sw5.21--
8:57 PM697159.19-3.48sw7.82--
6:57 PM775660.08-6.08sw12.17--
5:57 PM815060.58-6.08sw12.17--
4:57 PM854561.25-6.95sw13.03--
3:57 PM854460.61-6.08sw11.3--
2:57 PM844660.96-5.21wsw11.3--
1:57 PM834861.26-6.08sw11.3--
12:57 PM815261.69-4.34w9.56--
11:57 AM785661.01-4.34wnw10.43--
10:57 AM756261.08-3.48sw9.56--
9:57 AM716960.3-2.61se6.08--
8:57 AM687559.77-1.74s5.21--
7:57 AM677960.26-0.87ssw4.34--
6:57 AM658259.37-2.61wsw4.34--
5:57 AM658359.71---2.61--
4:57 AM648459.06-0.87sw3.48--
2:57 AM658359.71-2.61sw4.34--
1:57 AM658359.71-1.74wsw4.34--
High: 89ºf @2:57 PM    Low: 62ºf @1:57 AM     Approx. Precipitation / Rain Total: in.
Time (PDT)Temp. (ºf)Humidity (%)Dew Point (ºf)Barometer (inHG)Wind Speed (mph)Wind DirectionWind Gust (mph)1hr. Precip / Rain Total (in.)Snow Depth
10:57 PM648459.06-2.61sw4.34--
9:57 PM658259.37-1.74sw6.95--
8:57 PM677659.18-4.34sw8.69--
7:57 PM706959.35-5.21wsw10.43--
6:57 PM765759.65-6.95sw11.3--
5:57 PM824659.15-6.95wsw11.3--
4:57 PM844560.34-7.82wsw13.9--
3:57 PM864360.86-7.82sw14.77--
2:57 PM894061.5-6.08sw14.77--
1:57 PM884161.31-6.08wsw12.17--
12:57 PM874462.41-4.34wsw10.43--
11:57 AM844862.17-3.48ssw7.82--
10:57 AM795561.43-2.61ssw8.69--
9:57 AM766161.56-4.34sw6.95--
8:57 AM726961.26-2.61sw5.21--
6:57 AM658560.37-1.74ssw4.34--
5:57 AM638859.39-1.74ssw3.48--
4:57 AM638859.39-1.74sw3.48--
3:57 AM638959.7-1.74nw3.48--
2:57 AM638959.7-2.61sw6.08--
1:57 AM629159.34-3.48wsw5.21--
High: 89ºf @3:57 PM    Low: 59ºf @3:57 AM     Approx. Precipitation / Rain Total: in.
Time (PDT)Temp. (ºf)Humidity (%)Dew Point (ºf)Barometer (inHG)Wind Speed (mph)Wind DirectionWind Gust (mph)1hr. Precip / Rain Total (in.)Snow Depth
11:57 PM629059.03-0.87wsw4.34--
10:57 PM648659.72-2.61sw4.34--
9:57 PM668160-2.61sw6.08--
8:57 PM697259.59-3.48sw6.95--
7:57 PM736359.65-4.34wsw9.56--
6:57 PM795460.91-6.08wsw9.56--
5:57 PM844761.57-6.08wsw10.43--
4:57 PM844660.96-6.95sw13.9--
3:57 PM893960.78-7.82sw13.9--
2:57 PM874361.76-6.95sw12.17--
1:57 PM864662.77-5.21sw10.43--
12:57 PM835062.41-4.34w8.69--
11:57 AM805562.36-3.48w9.56--
10:57 AM766262.02-4.34ssw9.56--
9:57 AM736761.38-3.48ssw6.08--
8:57 AM668360.68-1.74ssw5.21--
7:57 AM658460.04-0.87ene5.21--
6:57 AM638959.7-1.74nne3.48--
5:57 AM629460.25-1.74nw4.34--
4:57 AM629560.55-2.61w4.34--
3:57 AM599858.43-2.61sw3.48--
2:57 AM609759.14-2.61sw4.34--
1:57 AM619659.85-1.74sw3.48--
12:57 AM619459.26-0.87sw3.48--
High: 89ºf @2:57 PM    Low: 60ºf @12:57 AM     Approx. Precipitation / Rain Total: in.
Time (PDT)Temp. (ºf)Humidity (%)Dew Point (ºf)Barometer (inHG)Wind Speed (mph)Wind DirectionWind Gust (mph)1hr. Precip / Rain Total (in.)Snow Depth
11:57 PM628958.72-2.61wsw3.48--
10:57 PM648659.72-2.61sw4.34--
9:57 PM668160-3.48wsw5.21--
8:57 PM697560.74-3.48wsw6.95--
7:57 PM736560.52-5.21wsw9.56--
6:57 PM785661.01-6.08wsw11.3--
5:57 PM824860.34-6.08wsw13.03--
4:57 PM854460.61-8.69wsw14.77--
3:57 PM883959.9-8.69sw13.9--
2:57 PM893759.3-6.08wsw13.03--
1:57 PM874160.41-4.34sw11.3--
12:57 PM844660.96-4.34ssw11.3--
11:57 AM815161.14-3.48ssw7.82--
10:57 AM775861.07-4.34wsw8.69--
9:57 AM716960.3-1.74w7.82--
8:57 AM687660.14-0.87s5.21--
7:57 AM668160-0.87n3.48--
6:57 AM648459.06---3.48--
5:57 AM638558.41-0.87nnw2.61--
4:57 AM638658.74-0.87nw3.48--
3:57 AM638859.39-0.87wsw3.48--
2:57 AM628958.72---2.61--
1:57 AM619459.26-1.74sw2.61--
12:57 AM609257.67-1.74wsw3.48--
High: 84ºf @2:57 PM    Low: 61ºf @11:57 PM     Approx. Precipitation / Rain Total: in.
Time (PDT)Temp. (ºf)Humidity (%)Dew Point (ºf)Barometer (inHG)Wind Speed (mph)Wind DirectionWind Gust (mph)1hr. Precip / Rain Total (in.)Snow Depth
11:57 PM618957.73-2.61wsw3.48--
9:57 PM657958.32-2.61sw5.21--
8:57 PM687158.24-3.48sw6.08--
7:57 PM736259.2-4.34sw8.69--
6:57 PM775358.54-5.21wsw9.56--
5:57 PM805059.66-6.08wsw11.3--
4:57 PM824759.75-6.08wsw13.03--
3:57 PM834458.81-8.69sw15.64--
2:57 PM844459.71-6.95sw11.3--
1:57 PM824960.93-3.48wsw11.3--
12:57 PM785459.99-4.34sw8.69--
11:57 AM765860.14-3.48wsw8.69--
10:57 AM716859.89-1.74w5.21--
9:57 AM687459.39-0.87wnw4.34--
8:57 AM667858.94-1.74wnw4.34--
7:57 AM658058.67-1.74n4.34--
6:57 AM648258.39---3.48--
5:57 AM648358.73-0.87s3.48--
4:57 AM648358.73-0.87sse4.34--
3:57 AM648358.73---5.21--
2:57 AM648258.39-2.61w4.34--
1:57 AM648258.39-1.74wsw4.34--
High: 81ºf @4:57 PM    Low: 59ºf @12:57 AM     Approx. Precipitation / Rain Total: in.
Time (PDT)Temp. (ºf)Humidity (%)Dew Point (ºf)Barometer (inHG)Wind Speed (mph)Wind DirectionWind Gust (mph)1hr. Precip / Rain Total (in.)Snow Depth
11:57 PM648258.39-2.61sw4.34--
10:57 PM648258.39-2.61sw5.21--
9:57 PM638458.08-2.61wsw6.95--
8:57 PM657958.32-4.34wsw10.43--
7:57 PM687258.63-6.08wsw13.03--
6:57 PM745958.75-6.08sw11.3--
5:57 PM795159.3-6.08wsw12.17--
4:57 PM814859.43-6.08sw12.17--
3:57 PM805059.66-4.34s10.43--
2:57 PM785258.93-4.34wsw10.43--
1:57 PM765659.15-4.34w9.56--
12:57 PM736259.2-1.74ssw6.95--
11:57 AM706858.94-0.87nw6.08--
10:57 AM667557.84-3.48se6.08--
9:57 AM657757.61-2.61s5.21--
8:57 AM657857.97-2.61wsw4.34--
7:57 AM647957.35-1.74nw4.34--
6:57 AM638157.07-0.87ne4.34--
5:57 AM638257.41-2.61nne4.34--
4:57 AM628256.44-1.74wnw3.48--
3:57 AM628356.77-3.48n4.34--
2:57 AM628457.11-2.61wnw6.08--
1:57 AM618857.42-3.48w4.34--
12:57 AM598955.76-1.74wsw3.48--
High: 83ºf @2:57 PM    Low: 60ºf @12:57 AM     Approx. Precipitation / Rain Total: in.
Time (PDT)Temp. (ºf)Humidity (%)Dew Point (ºf)Barometer (inHG)Wind Speed (mph)Wind DirectionWind Gust (mph)1hr. Precip / Rain Total (in.)Snow Depth
11:57 PM618556.45-1.74sw3.48--
8:57 PM667256.71-4.34wsw8.69--
7:57 PM696657.16-4.34wsw9.56--
6:57 PM735957.81-6.08wsw13.03--
5:57 PM785158.38-6.08wsw13.03--
4:57 PM785158.38-6.08wsw14.77--
3:57 PM814557.63-8.69wsw15.64--
2:57 PM834156.84-6.95wsw13.03--
1:57 PM824155.95-5.21wsw12.17--
12:57 PM804456.1-5.21w11.3--
11:57 AM765156.55-3.48w7.82--
10:57 AM716156.86-1.74s6.08--
9:57 AM667156.32-3.48nw6.08--
8:57 AM647555.91-2.61nw5.21--
7:57 AM637856.03-0.87nne4.34--
6:57 AM637956.38-0.87sw3.48--
5:57 AM628055.76-1.74sw3.48--
4:57 AM628256.44-2.61sw5.21--
3:57 AM628256.44-3.48w6.95--
1:57 AM628156.1-1.74wsw3.48--
12:57 AM608555.47-1.74w3.48--
High: 77ºf @5:57 PM    Low: 60ºf @12:57 AM     Approx. Precipitation / Rain Total: in.
Time (PDT)Temp. (ºf)Humidity (%)Dew Point (ºf)Barometer (inHG)Wind Speed (mph)Wind DirectionWind Gust (mph)1hr. Precip / Rain Total (in.)Snow Depth
11:57 PM608354.82-2.61sw4.34--
10:57 PM627855.06-2.61sw4.34--
9:57 PM647455.54-2.61sw5.21--
8:57 PM676755.67-3.48sw6.95--
7:57 PM706055.46-4.34wsw9.56--
6:57 PM745355.77-5.21wsw12.17--
5:57 PM774956.36-5.21sw11.3--
4:57 PM775157.47-6.95wsw13.03--
3:57 PM775358.54-5.21w11.3--
2:57 PM735957.81-3.48nw8.69--
1:57 PM716458.2-3.48wsw9.56--
12:57 PM696958.4-3.48wsw7.82--
11:57 AM687258.63-2.61sw6.08--
10:57 AM667758.58-1.74wsw6.08--
9:57 AM658159.02-3.48w6.08--
8:57 AM629359.95-3.48wsw5.21--
7:57 AM619358.96-2.61sw5.21--
6:57 AM618857.42-3.48sw5.21--
5:57 AM618857.42-2.61sw4.34--
4:57 AM628557.43-1.74wsw4.34--
2:57 AM628557.43-2.61sw6.08--
12:57 AM608856.43-1.74wsw5.21--
High: 80ºf @4:57 PM    Low: 62ºf @10:57 PM     Approx. Precipitation / Rain Total: in.
Time (PDT)Temp. (ºf)Humidity (%)Dew Point (ºf)Barometer (inHG)Wind Speed (mph)Wind DirectionWind Gust (mph)1hr. Precip / Rain Total (in.)Snow Depth
10:57 PM628256.44-3.48w6.08--
9:57 PM657556.88-2.61wsw7.82--
8:57 PM677056.88-4.34sw7.82--
7:57 PM706256.37-5.21sw11.3--
6:57 PM755457.21-6.95sw12.17--
5:57 PM785057.83-5.21sw11.3--
4:57 PM804858.52-4.34wsw12.17--
3:57 PM794857.61-6.08wsw12.17--
2:57 PM785057.83-5.21sw15.64--
1:57 PM784856.7-3.48w12.17--
12:57 PM765357.61-3.48wsw9.56--
11:57 AM745657.29-3.48ssw7.82--
10:57 AM706356.81-2.61se6.08--
9:57 AM696657.16-1.74nne4.34--
8:57 AM677358.05-0.87nne3.48--
7:57 AM647857-1.74sw5.21--
6:57 AM647857-2.61s4.34--
5:57 AM647857-2.61ssw5.21--
4:57 AM647656.28-2.61ssw6.08--
3:57 AM657657.24-2.61s5.21--
2:57 AM657857.97-2.61sse5.21--
1:57 AM657958.32-0.87sw4.34--
12:57 AM658058.67-1.74ssw5.21--
High: 81ºf @3:57 PM    Low: 62ºf @12:57 AM     Approx. Precipitation / Rain Total: in.
Time (PDT)Temp. (ºf)Humidity (%)Dew Point (ºf)Barometer (inHG)Wind Speed (mph)Wind DirectionWind Gust (mph)1hr. Precip / Rain Total (in.)Snow Depth
11:57 PM658159.02-2.61s5.21--
10:57 PM638458.08-1.74ssw4.34--
9:57 PM647957.35-2.61sw6.95--
8:57 PM667357.09-3.48sw8.69--
7:57 PM696657.16-5.21wsw11.3--
6:57 PM745456.28-6.95wsw13.9--
5:57 PM784957.27-6.95sw14.77--
4:57 PM804657.34-6.95sw13.03--
3:57 PM814758.84-6.95sw13.9--
2:57 PM795058.75-6.95sw13.03--
1:57 PM785258.93-4.34wsw13.03--
12:57 PM745958.75-6.08w10.43--
11:57 AM716659.06-2.61wsw6.95--
10:57 AM696958.4-2.61ssw6.95--
9:57 AM677458.43-3.48w6.95--
8:57 AM667858.94-2.61sw5.21--
7:57 AM658058.67-2.61ssw5.21--
6:57 AM648158.05-1.74s4.34--
5:57 AM648358.73-1.74sw3.48--
4:57 AM648358.73-0.87ssw2.61--
2:57 AM638558.41-1.74ssw3.48--
12:57 AM628858.4-2.61s3.48--
High: 84ºf @2:57 PM    Low: 60ºf @5:57 AM     Approx. Precipitation / Rain Total: in.
Time (PDT)Temp. (ºf)Humidity (%)Dew Point (ºf)Barometer (inHG)Wind Speed (mph)Wind DirectionWind Gust (mph)1hr. Precip / Rain Total (in.)Snow Depth
11:57 PM638458.08-1.74sw3.48--
10:57 PM648057.7-1.74ssw3.48--
9:57 PM657857.97-1.74wsw7.82--
8:57 PM687158.24-5.21sw8.69--
7:57 PM716458.2-5.21wsw11.3--
6:57 PM765458.13-6.08wsw13.9--
5:57 PM814557.63-6.95sw15.64--
4:57 PM834257.51-8.69sw18.25--
3:57 PM844157.73-7.82wsw13.9--
2:57 PM844157.73-7.82wsw15.64--
1:57 PM844258.41-7.82wsw13.9--
12:57 PM844057.05-6.08wsw11.3--
11:57 AM824256.61-3.48wsw8.69--
10:57 AM784856.7-3.48nw7.82--
9:57 AM745657.29-4.34sw8.69--
8:57 AM716357.76-2.61w6.95--
7:57 AM677157.28-2.61w6.08--
6:57 AM647756.64-2.61nw4.34--
5:57 AM608053.81-1.74wnw3.48--
4:57 AM608254.49-2.61nw3.48--
3:57 AM617954.44---3.48--
2:57 AM617954.44---2.61--
1:57 AM617653.38---3.48--
12:57 AM636450.63---3.48--
High: 78ºf @6:57 PM    Low: 65ºf @10:57 PM     Approx. Precipitation / Rain Total: in.
Time (PDT)Temp. (ºf)Humidity (%)Dew Point (ºf)Barometer (inHG)Wind Speed (mph)Wind DirectionWind Gust (mph)1hr. Precip / Rain Total (in.)Snow Depth
11:57 PM656151.22-1.74ssw2.61--
10:57 PM656050.77-1.74sw3.48--
9:57 PM676052.65-1.74wsw5.21--
8:57 PM705452.58-3.48wsw6.95--
7:57 PM744752.47-4.34wsw9.56--
6:57 PM784554.92-6.08wsw12.17--
Past Weather Disclaimer Note regarding "Approx. Precipitation / Rain Total"

Currently

Fair 77°F
29.84in
Barometer
54%
Humidity
South 8.1mph
Wind
Fair

Past Weather Nearby

More Local Information

Bookmark and Share

Go Ad Free - Become a Member